createdAt,value
2023-04-27T00:04:41.827Z,6.8
2023-04-27T00:19:41.607Z,6.8
2023-04-27T00:34:41.601Z,6.6
2023-04-27T00:49:41.634Z,6.5
2023-04-27T01:04:41.598Z,6.2
2023-04-27T01:19:41.562Z,5.9
2023-04-27T01:34:41.536Z,5.7
2023-04-27T01:49:41.597Z,5.4
2023-04-27T02:04:41.617Z,5.2
2023-04-27T02:19:41.570Z,5
2023-04-27T02:34:41.572Z,4.8
2023-04-27T02:49:41.555Z,4.5
2023-04-27T03:04:41.568Z,4.4
2023-04-27T03:19:41.535Z,4.2
2023-04-27T03:34:41.557Z,4.1
2023-04-27T03:49:41.570Z,3.9
2023-04-27T04:04:41.656Z,3.7
2023-04-27T04:19:41.602Z,3.6
2023-04-27T04:34:41.572Z,3.6
2023-04-27T04:49:41.595Z,3.5
2023-04-27T05:04:41.650Z,3.7
2023-04-27T05:19:41.562Z,3.9
2023-04-27T05:34:41.584Z,4.1
2023-04-27T05:49:41.570Z,4.4
2023-04-27T06:04:41.591Z,4.7
2023-04-27T06:19:41.574Z,5.1
2023-04-27T06:34:41.586Z,5.4
2023-04-27T06:49:41.549Z,5.8
2023-04-27T07:04:41.607Z,6.4
2023-04-27T07:19:45.603Z,6.6
2023-04-27T07:34:52.449Z,6.9
2023-04-27T07:49:41.485Z,-999
2023-04-27T08:04:41.674Z,-999
2023-04-27T08:19:41.456Z,-999
2023-04-27T08:34:41.440Z,-999
2023-04-27T08:49:41.473Z,-999
2023-04-27T09:04:41.542Z,-999
2023-04-27T09:19:41.464Z,-999
2023-04-27T09:34:41.460Z,-999
2023-04-27T09:49:41.471Z,-999
2023-04-27T10:04:41.526Z,-999
2023-04-27T10:19:41.454Z,-999
2023-04-27T10:34:41.466Z,-999
2023-04-27T10:49:41.464Z,-999
2023-04-27T11:04:41.507Z,-999
2023-04-27T11:19:41.435Z,-999
2023-04-27T11:34:41.465Z,-999
2023-04-27T11:49:41.559Z,-999
2023-04-27T12:04:41.760Z,-999
2023-04-27T12:19:41.589Z,12.6
2023-04-27T12:34:41.571Z,12.4
2023-04-27T12:49:41.594Z,12.5
2023-04-27T13:04:41.609Z,13.1
2023-04-27T13:19:41.582Z,13.1
2023-04-27T13:34:41.546Z,13.3
2023-04-27T13:49:41.600Z,13.9
2023-04-27T14:04:41.593Z,15.6
2023-04-27T14:19:41.561Z,16.5
2023-04-27T14:34:41.574Z,16.8
2023-04-27T14:49:41.563Z,17.5
2023-04-27T15:04:41.631Z,17
2023-04-27T15:19:41.573Z,17
2023-04-27T15:34:41.549Z,16.4
2023-04-27T15:49:49.848Z,15.6
2023-04-27T16:04:41.594Z,15.2
2023-04-27T16:19:41.569Z,15.2
2023-04-27T16:34:41.622Z,14.8
2023-04-27T16:49:41.560Z,15.1
2023-04-27T17:04:41.606Z,14.7
2023-04-27T17:19:41.577Z,14.2
2023-04-27T17:34:43.039Z,13.8
2023-04-27T17:49:41.562Z,13.6
2023-04-27T18:04:41.624Z,13.3
2023-04-27T18:19:41.613Z,13
2023-04-27T18:34:41.569Z,12.9
2023-04-27T18:49:41.567Z,12.7
2023-04-27T19:04:43.035Z,12.5
2023-04-27T19:19:41.590Z,12.4
2023-04-27T19:34:41.552Z,12.4
2023-04-27T19:49:41.563Z,12.1
2023-04-27T20:04:41.746Z,12
2023-04-27T20:19:41.575Z,11.8
2023-04-27T20:34:41.573Z,11.4
2023-04-27T20:49:41.574Z,11.3
2023-04-27T21:04:41.649Z,11.3
2023-04-27T21:19:41.590Z,11.2
2023-04-27T21:34:41.591Z,11.1
2023-04-27T21:49:41.579Z,11
2023-04-27T22:04:41.771Z,10.9
2023-04-27T22:19:41.597Z,10.8
2023-04-27T22:34:41.585Z,10.8
2023-04-27T22:49:41.589Z,10.8
2023-04-27T23:02:54.647Z,10.7
2023-04-27T23:03:00.166Z,10.7
2023-04-27T23:18:00.067Z,10.8
2023-04-27T23:33:00.048Z,10.5
2023-04-27T23:48:00.361Z,10.4
